Time;durP1;ratioP1;P1;durP2;ratioP2;P2;SDS_P1;SDS_P2;PMS_P1;PMS_P2;Temp;Humidity;BMP_temperature;BMP_pressure;BME280_temperature;BME280_humidity;BME280_pressure;Samples;Min_cycle;Max_cycle;Signal;HPM_P1;HPM_P2
2023/08/03 00:01:41;;;;;;;3.35;1.85;;;17.80;99.90;;;;;;4982864;28;20200;-92
2023/08/03 00:04:10;;;;;;;2.65;2.15;;;17.80;99.90;;;;;;4981256;28;20214;-90
2023/08/03 00:06:36;;;;;;;2.95;1.80;;;17.80;99.90;;;;;;4977145;28;20199;-91
2023/08/03 00:09:03;;;;;;;3.50;2.20;;;17.80;99.90;;;;;;4987614;28;20726;-91
2023/08/03 00:11:30;;;;;;;3.20;2.03;;;17.80;99.90;;;;;;4977077;28;20245;-90
2023/08/03 00:13:57;;;;;;;4.25;2.13;;;17.70;1.00;;;;;;4985611;28;20287;-91
2023/08/03 00:16:24;;;;;;;2.38;2.17;;;17.80;1.00;;;;;;4979746;28;20200;-91
2023/08/03 00:18:50;;;;;;;3.55;2.13;;;17.70;1.00;;;;;;4977508;28;20608;-91
2023/08/03 00:21:18;;;;;;;2.00;1.77;;;17.70;1.00;;;;;;4975153;28;20206;-92
2023/08/03 00:23:45;;;;;;;3.20;1.92;;;17.80;1.00;;;;;;4974293;28;20217;-91
2023/08/03 00:26:12;;;;;;;3.42;2.10;;;17.80;1.00;;;;;;4986721;28;20208;-91
2023/08/03 00:28:39;;;;;;;2.83;2.15;;;17.90;1.00;;;;;;4977373;28;20220;-91
2023/08/03 00:31:06;;;;;;;2.88;2.00;;;18.00;1.00;;;;;;4968181;28;20210;-91
2023/08/03 00:33:32;;;;;;;2.78;2.33;;;18.00;1.00;;;;;;4982696;28;20206;-91
2023/08/03 00:35:59;;;;;;;3.50;2.50;;;18.10;1.00;;;;;;4971436;28;20720;-90
2023/08/03 00:38:27;;;;;;;3.35;1.98;;;18.10;1.00;;;;;;4986746;28;20282;-91
2023/08/03 00:40:54;;;;;;;4.07;2.50;;;18.20;1.00;;;;;;4984177;28;20202;-91
2023/08/03 00:43:21;;;;;;;3.38;2.13;;;18.20;1.00;;;;;;4979919;28;20195;-91
2023/08/03 00:45:48;;;;;;;3.65;2.50;;;18.20;1.00;;;;;;4974860;28;20195;-91
2023/08/03 00:48:15;;;;;;;2.50;2.30;;;18.20;99.90;;;;;;4979391;28;20223;-91
2023/08/03 00:50:42;;;;;;;2.88;2.13;;;18.20;99.90;;;;;;4977263;28;20202;-92
2023/08/03 00:53:09;;;;;;;2.17;1.98;;;18.20;1.00;;;;;;4976423;28;20200;-90
2023/08/03 00:55:37;;;;;;;3.17;2.20;;;18.20;1.00;;;;;;4963790;28;20571;-92
2023/08/03 00:58:04;;;;;;;3.50;2.30;;;18.20;1.00;;;;;;4975582;28;20541;-93
2023/08/03 01:00:30;;;;;;;2.35;2.00;;;18.20;1.00;;;;;;4996084;28;20207;-90
2023/08/03 01:02:58;;;;;;;3.58;2.25;;;18.20;1.00;;;;;;4990394;28;20664;-91
2023/08/03 01:05:25;;;;;;;2.78;2.17;;;18.30;1.00;;;;;;4975013;28;20329;-90
2023/08/03 01:07:52;;;;;;;2.65;1.92;;;18.20;1.00;;;;;;4980303;28;20232;-92
2023/08/03 01:10:19;;;;;;;2.50;2.28;;;18.20;1.00;;;;;;4967758;28;20212;-90
2023/08/03 01:12:48;;;;;;;2.63;2.10;;;18.20;1.00;;;;;;4967954;28;20228;-91
2023/08/03 01:15:15;;;;;;;5.78;2.28;;;18.20;1.00;;;;;;4979098;28;20226;-90
2023/08/03 01:17:42;;;;;;;3.40;2.28;;;18.20;1.00;;;;;;4985520;28;20218;-91
2023/08/03 01:20:09;;;;;;;2.40;2.17;;;18.30;1.00;;;;;;4976114;28;20191;-91
2023/08/03 01:22:42;;;;;;;4.50;2.40;;;18.30;1.00;;;;;;4976081;28;20580;-91
2023/08/03 01:25:10;;;;;;;3.97;2.03;;;18.40;1.00;;;;;;4968977;28;20203;-90
2023/08/03 01:27:36;;;;;;;2.80;2.15;;;18.50;1.00;;;;;;4974581;28;20204;-90
2023/08/03 01:30:04;;;;;;;2.88;2.25;;;18.50;1.00;;;;;;4969826;28;20196;-90
2023/08/03 01:32:31;;;;;;;2.30;2.10;;;18.50;1.00;;;;;;4973780;28;20792;-90
2023/08/03 01:34:59;;;;;;;2.17;1.98;;;18.60;1.00;;;;;;4964926;28;20199;-90
2023/08/03 01:37:26;;;;;;;2.20;2.00;;;18.70;1.00;;;;;;4962659;28;20263;-91
2023/08/03 01:39:55;;;;;;;2.22;2.03;;;18.70;1.00;;;;;;4975419;28;20223;-92
2023/08/03 01:42:21;;;;;;;2.92;2.17;;;18.80;1.00;;;;;;4975621;28;20211;-90
2023/08/03 01:44:48;;;;;;;4.25;2.20;;;18.80;1.00;;;;;;4971397;28;20665;-91
2023/08/03 01:47:15;;;;;;;3.08;2.40;;;18.90;1.00;;;;;;4966113;28;20229;-91
2023/08/03 01:49:42;;;;;;;3.95;2.10;;;18.90;1.00;;;;;;4978611;28;20222;-91
2023/08/03 01:52:09;;;;;;;2.65;1.98;;;18.90;1.00;;;;;;4964676;28;20204;-91
2023/08/03 01:54:35;;;;;;;2.25;2.05;;;19.00;99.90;;;;;;4967087;28;20204;-91
2023/08/03 01:57:04;;;;;;;2.13;1.90;;;19.00;99.90;;;;;;4969639;28;20196;-91
2023/08/03 01:59:31;;;;;;;2.13;1.92;;;19.00;99.90;;;;;;4966457;28;20198;-91
2023/08/03 02:01:58;;;;;;;2.33;2.00;;;19.00;99.90;;;;;;4982653;28;20209;-90
2023/08/03 02:04:24;;;;;;;3.83;1.90;;;19.10;99.90;;;;;;4975895;28;20202;-90
2023/08/03 02:06:56;;;;;;;2.75;2.05;;;19.10;99.90;;;;;;4971836;28;20579;-90
2023/08/03 02:09:23;;;;;;;3.15;2.28;;;19.00;99.90;;;;;;4973628;28;20223;-91
2023/08/03 02:11:50;;;;;;;6.07;1.92;;;18.90;99.90;;;;;;4974147;28;20215;-91
2023/08/03 02:14:17;;;;;;;3.65;1.90;;;18.90;99.90;;;;;;4985332;28;20202;-91
2023/08/03 02:16:44;;;;;;;4.15;1.88;;;18.90;99.90;;;;;;4973160;28;20294;-91
2023/08/03 02:19:11;;;;;;;1.95;1.73;;;18.90;99.90;;;;;;4963541;28;20553;-90
2023/08/03 02:21:38;;;;;;;3.78;1.77;;;18.90;99.90;;;;;;4974421;28;20204;-91
2023/08/03 02:24:05;;;;;;;2.50;1.80;;;18.90;99.90;;;;;;4967743;28;20207;-92
2023/08/03 02:26:32;;;;;;;3.65;2.03;;;18.90;99.90;;;;;;4971579;28;20662;-91
2023/08/03 02:28:59;;;;;;;3.58;1.83;;;18.90;99.90;;;;;;4963378;28;20220;-90
2023/08/03 02:31:28;;;;;;;2.10;1.67;;;19.00;99.90;;;;;;4969635;28;20656;-91
2023/08/03 02:33:54;;;;;;;4.13;1.70;;;19.00;99.90;;;;;;4966672;28;20290;-92
2023/08/03 02:36:21;;;;;;;3.50;1.90;;;19.00;99.90;;;;;;4985563;28;20191;-91
2023/08/03 02:38:48;;;;;;;4.68;1.65;;;19.00;99.90;;;;;;4983979;28;20193;-92
2023/08/03 02:41:15;;;;;;;4.90;1.80;;;19.00;99.90;;;;;;4974826;28;20202;-92
2023/08/03 02:43:42;;;;;;;2.22;1.80;;;19.00;99.90;;;;;;4975717;28;20398;-93
2023/08/03 02:46:09;;;;;;;3.35;1.70;;;19.00;99.90;;;;;;4963703;28;20208;-91
2023/08/03 02:48:37;;;;;;;2.53;2.08;;;19.00;99.90;;;;;;4974223;28;20230;-91
2023/08/03 02:51:04;;;;;;;2.50;1.60;;;18.90;99.90;;;;;;4968941;28;20222;-92
2023/08/03 02:53:31;;;;;;;3.00;2.08;;;18.90;99.90;;;;;;4976823;28;20290;-91
2023/08/03 02:55:57;;;;;;;2.35;1.80;;;18.90;99.90;;;;;;4978941;28;20568;-91
2023/08/03 02:58:24;;;;;;;4.72;1.83;;;18.90;99.90;;;;;;4981209;28;20198;-92
2023/08/03 03:00:51;;;;;;;2.53;1.90;;;18.90;1.00;;;;;;4986579;28;20209;-92
2023/08/03 03:03:18;;;;;;;2.00;1.80;;;18.90;1.00;;;;;;4981211;28;20270;-92
2023/08/03 03:05:46;;;;;;;1.80;1.70;;;18.90;1.00;;;;;;4978795;28;20203;-92
2023/08/03 03:08:13;;;;;;;2.50;1.80;;;18.80;1.00;;;;;;4987862;28;20573;-91
2023/08/03 03:10:40;;;;;;;4.25;2.00;;;18.80;1.00;;;;;;4978283;28;20302;-91
2023/08/03 03:13:07;;;;;;;1.60;1.50;;;18.80;1.00;;;;;;4972682;28;20589;-91
2023/08/03 03:15:33;;;;;;;2.15;1.70;;;18.70;1.00;;;;;;4968673;28;20204;-92
2023/08/03 03:18:00;;;;;;;2.55;1.83;;;18.70;1.00;;;;;;4973237;28;20203;-91
2023/08/03 03:20:27;;;;;;;1.80;1.60;;;18.70;1.00;;;;;;4987873;28;20220;-92
2023/08/03 03:22:55;;;;;;;2.13;1.60;;;18.60;1.00;;;;;;4967470;28;20588;-91
2023/08/03 03:25:22;;;;;;;2.10;1.55;;;18.60;1.00;;;;;;4981063;28;20201;-92
2023/08/03 03:27:49;;;;;;;2.38;1.70;;;18.60;1.00;;;;;;4978027;28;20199;-92
2023/08/03 03:30:16;;;;;;;1.60;1.50;;;18.40;1.00;;;;;;4977179;28;20306;-92
2023/08/03 03:32:43;;;;;;;2.55;1.80;;;18.30;86.60;;;;;;4978156;28;20222;-93
2023/08/03 03:35:10;;;;;;;2.08;1.63;;;18.20;99.90;;;;;;4977701;28;20202;-92
2023/08/03 03:37:37;;;;;;;3.25;1.80;;;18.10;99.90;;;;;;4976062;28;20206;-92
2023/08/03 03:40:06;;;;;;;4.35;1.70;;;18.00;99.90;;;;;;4978330;28;20294;-91
2023/08/03 03:42:33;;;;;;;1.90;1.70;;;18.00;1.00;;;;;;4981262;28;20216;-92
2023/08/03 03:45:00;;;;;;;3.75;1.48;;;18.00;1.00;;;;;;4985116;28;20558;-91
2023/08/03 03:47:27;;;;;;;4.85;1.73;;;18.00;1.00;;;;;;4969226;28;20287;-92
2023/08/03 03:49:54;;;;;;;2.72;1.55;;;18.00;1.00;;;;;;4965703;28;20216;-92
2023/08/03 03:52:21;;;;;;;2.47;1.67;;;18.00;1.00;;;;;;4975363;28;20294;-92
2023/08/03 03:54:47;;;;;;;2.88;1.63;;;18.00;1.00;;;;;;4970100;28;20644;-92
2023/08/03 03:57:15;;;;;;;4.82;1.98;;;18.00;1.00;;;;;;4975965;28;20206;-93
2023/08/03 03:59:42;;;;;;;3.85;1.90;;;18.20;1.00;;;;;;4987587;28;20549;-93
2023/08/03 04:02:09;;;;;;;3.17;1.88;;;18.40;1.00;;;;;;4978123;28;20199;-93
2023/08/03 04:04:36;;;;;;;3.00;1.83;;;18.60;1.00;;;;;;4973649;28;20214;-91
2023/08/03 04:07:03;;;;;;;2.28;1.80;;;18.80;1.00;;;;;;4982203;28;20207;-92
2023/08/03 04:09:29;;;;;;;2.10;1.90;;;19.00;99.90;;;;;;4973449;28;20220;-93
2023/08/03 04:11:56;;;;;;;2.03;1.83;;;19.10;1.00;;;;;;4975561;28;20238;-92
2023/08/03 04:14:24;;;;;;;2.28;1.67;;;19.00;1.00;;;;;;4976955;28;20210;-92
2023/08/03 04:16:52;;;;;;;4.70;1.75;;;18.90;99.90;;;;;;4971579;28;20242;-93
2023/08/03 04:19:19;;;;;;;1.80;1.70;;;18.70;1.00;;;;;;4973170;28;20195;-93
2023/08/03 04:21:46;;;;;;;2.22;1.75;;;18.90;99.90;;;;;;4977371;28;20207;-92
2023/08/03 04:24:13;;;;;;;2.80;1.63;;;19.40;99.90;;;;;;4971979;28;20203;-92
2023/08/03 04:26:39;;;;;;;1.90;1.50;;;20.00;1.00;;;;;;4980409;28;20581;-91
2023/08/03 04:29:06;;;;;;;5.03;1.60;;;20.50;1.00;;;;;;4976607;28;20251;-92
2023/08/03 04:31:34;;;;;;;1.45;1.20;;;20.70;1.00;;;;;;4973129;28;20211;-92
2023/08/03 04:34:01;;;;;;;2.88;1.40;;;20.90;99.90;;;;;;4974986;28;20213;-91
2023/08/03 04:36:28;;;;;;;1.55;1.13;;;21.00;96.10;;;;;;4986450;28;20236;-92
2023/08/03 04:38:55;;;;;;;2.05;1.40;;;21.30;1.00;;;;;;4987181;28;20683;-93
2023/08/03 04:41:22;;;;;;;1.98;1.30;;;21.50;1.00;;;;;;4977150;28;20198;-92
2023/08/03 04:43:48;;;;;;;1.70;1.17;;;21.50;99.90;;;;;;4976941;28;20286;-93
2023/08/03 04:46:15;;;;;;;2.75;1.30;;;21.50;99.90;;;;;;4977423;28;20195;-92
2023/08/03 04:48:43;;;;;;;1.52;1.20;;;21.70;99.90;;;;;;4983216;28;20207;-93
2023/08/03 04:51:10;;;;;;;3.88;1.30;;;21.90;72.60;;;;;;4971454;28;20196;-91
2023/08/03 04:53:37;;;;;;;1.85;1.20;;;22.30;1.00;;;;;;4978472;28;20195;-92
2023/08/03 04:56:05;;;;;;;1.70;1.20;;;22.70;99.90;;;;;;4976558;28;20265;-92
2023/08/03 04:58:32;;;;;;;3.28;1.48;;;23.00;1.00;;;;;;4972330;28;20203;-93
2023/08/03 05:00:59;;;;;;;3.20;1.30;;;22.90;99.90;;;;;;4975009;28;20202;-92
2023/08/03 05:03:25;;;;;;;3.17;1.30;;;22.60;99.90;;;;;;4983256;28;20231;-92
2023/08/03 05:05:53;;;;;;;2.80;1.10;;;22.30;99.90;;;;;;4972729;28;20196;-93
2023/08/03 05:08:22;;;;;;;2.83;1.20;;;22.00;99.90;;;;;;4984171;28;20598;-92
2023/08/03 05:10:49;;;;;;;3.75;1.30;;;21.90;1.00;;;;;;4975558;28;21054;-93
2023/08/03 05:13:17;;;;;;;1.65;1.40;;;21.70;1.00;;;;;;4973825;28;20218;-92
2023/08/03 05:15:44;;;;;;;2.28;1.60;;;21.60;1.00;;;;;;4982307;28;20210;-92
2023/08/03 05:18:10;;;;;;;1.55;1.20;;;21.50;1.00;;;;;;4974526;28;20217;-92
2023/08/03 05:20:37;;;;;;;3.85;1.20;;;21.30;1.00;;;;;;4986798;28;20219;-92
2023/08/03 05:23:08;;;;;;;6.95;1.85;;;21.20;21.60;;;;;;4976792;28;20203;-92
2023/08/03 05:25:35;;;;;;;3.85;1.38;;;21.00;99.90;;;;;;4977023;28;20199;-92
2023/08/03 05:28:02;;;;;;;2.95;1.35;;;20.90;1.00;;;;;;4975976;28;20307;-90
2023/08/03 05:30:29;;;;;;;2.45;1.48;;;21.00;1.00;;;;;;4975657;28;20310;-91
2023/08/03 05:32:56;;;;;;;3.03;1.50;;;21.10;1.00;;;;;;4975614;28;20282;-91
2023/08/03 05:35:23;;;;;;;2.15;1.40;;;21.20;99.90;;;;;;4976132;28;20207;-92
2023/08/03 05:37:53;;;;;;;4.53;1.50;;;21.20;99.90;;;;;;4967928;28;20207;-91
2023/08/03 05:40:21;;;;;;;4.47;1.80;;;21.30;99.90;;;;;;4978027;28;20200;-91
2023/08/03 05:42:48;;;;;;;4.60;1.60;;;21.30;99.90;;;;;;4983809;28;20200;-92
2023/08/03 05:45:34;;;;;;;3.70;1.70;;;21.30;99.90;;;;;;4975832;28;20291;-91
2023/08/03 05:48:01;;;;;;;2.28;1.58;;;21.20;99.90;;;;;;4978101;28;20271;-91
2023/08/03 05:50:28;;;;;;;5.65;2.88;;;21.10;99.90;;;;;;4966672;28;20621;-92
2023/08/03 05:52:54;;;;;;;3.80;1.50;;;21.10;99.90;;;;;;4962671;28;20206;-91
2023/08/03 05:55:23;;;;;;;4.53;1.58;;;20.90;1.00;;;;;;4975432;28;20199;-92
2023/08/03 05:57:50;;;;;;;3.03;1.70;;;20.90;1.00;;;;;;4967161;28;20207;-91
2023/08/03 06:00:21;;;;;;;3.70;1.75;;;20.80;1.00;;;;;;4974959;28;20195;-92
2023/08/03 06:02:48;;;;;;;2.10;1.30;;;20.80;1.00;;;;;;4975108;28;20206;-92
2023/08/03 06:05:34;;;;;;;2.78;1.50;;;20.70;1.00;;;;;;4984601;28;20306;-91
2023/08/03 06:08:00;;;;;;;4.35;1.75;;;20.70;1.00;;;;;;4963668;28;20207;-91
2023/08/03 06:10:30;;;;;;;2.75;1.55;;;20.70;1.00;;;;;;4974914;28;20558;-92
2023/08/03 06:12:57;;;;;;;6.38;2.30;;;20.70;1.00;;;;;;4962804;28;20318;-92
2023/08/03 06:15:23;;;;;;;11.20;2.40;;;20.70;1.00;;;;;;4980612;28;20204;-90
2023/08/03 06:17:51;;;;;;;7.50;1.58;;;20.80;1.00;;;;;;4971087;28;20575;-92
2023/08/03 06:20:22;;;;;;;5.47;1.50;;;20.80;1.00;;;;;;4984851;28;20226;-92
2023/08/03 06:22:48;;;;;;;2.75;1.50;;;20.90;1.00;;;;;;4973224;28;20204;-91
2023/08/03 06:25:16;;;;;;;4.90;1.60;;;20.90;99.90;;;;;;4975827;28;20656;-91
2023/08/03 06:27:45;;;;;;;2.28;1.23;;;21.00;99.90;;;;;;4983976;28;20571;-91
2023/08/03 06:30:13;;;;;;;13.13;2.92;;;21.10;99.90;;;;;;4977262;28;20304;-91
2023/08/03 06:32:40;;;;;;;6.65;1.58;;;21.10;99.90;;;;;;4986967;28;20211;-91
2023/08/03 06:35:24;;;;;;;4.05;1.55;;;21.20;1.00;;;;;;4968106;28;20207;-91
2023/08/03 06:37:51;;;;;;;3.15;1.30;;;21.40;1.00;;;;;;4982639;28;20198;-91
2023/08/03 06:40:17;;;;;;;2.55;1.30;;;21.70;1.00;;;;;;4984469;28;20199;-91
2023/08/03 06:42:46;;;;;;;8.55;1.85;;;21.90;99.90;;;;;;4987204;28;20195;-91
2023/08/03 06:45:13;;;;;;;5.93;1.42;;;22.00;99.90;;;;;;4978467;28;20208;-91
2023/08/03 06:47:40;;;;;;;6.75;1.50;;;22.00;51.70;;;;;;4979210;28;20195;-91
2023/08/03 06:50:08;;;;;;;3.85;1.35;;;21.90;49.60;;;;;;4978697;28;20215;-91
2023/08/03 06:52:35;;;;;;;5.93;1.67;;;21.80;99.90;;;;;;4982903;28;20696;-91
2023/08/03 06:55:02;;;;;;;3.85;1.42;;;21.90;99.90;;;;;;4983388;28;20209;-91
2023/08/03 06:57:29;;;;;;;4.60;1.65;;;21.90;99.90;;;;;;4974417;28;20200;-92
2023/08/03 06:59:58;;;;;;;8.30;1.30;;;22.00;80.00;;;;;;4977592;28;20302;-91
2023/08/03 07:02:25;;;;;;;5.32;1.60;;;22.10;99.90;;;;;;4978591;28;20211;-90
2023/08/03 07:04:52;;;;;;;5.68;1.70;;;22.40;1.00;;;;;;4976362;28;20282;-91
2023/08/03 07:07:19;;;;;;;5.32;1.40;;;22.60;1.00;;;;;;4980410;28;20214;-90
2023/08/03 07:09:48;;;;;;;3.67;1.40;;;22.70;1.00;;;;;;4975876;28;20220;-91
2023/08/03 07:12:15;;;;;;;4.85;1.35;;;22.90;1.00;;;;;;4969214;28;20228;-90
2023/08/03 07:14:42;;;;;;;3.42;1.40;;;22.90;99.90;;;;;;4987123;28;20282;-90
2023/08/03 07:17:10;;;;;;;3.08;1.20;;;22.90;99.90;;;;;;4981287;28;20281;-92
2023/08/03 07:19:37;;;;;;;8.02;1.60;;;22.80;99.90;;;;;;4982006;28;20201;-91
2023/08/03 07:22:05;;;;;;;5.80;1.67;;;23.00;99.90;;;;;;4983194;28;20208;-91
2023/08/03 07:24:33;;;;;;;6.00;1.92;;;23.20;99.90;;;;;;4978143;28;20573;-91
2023/08/03 07:27:01;;;;;;;4.65;1.50;;;23.50;99.90;;;;;;4974637;28;20580;-91
2023/08/03 07:29:28;;;;;;;4.20;1.30;;;23.70;90.10;;;;;;4974016;28;20668;-91
2023/08/03 07:31:55;;;;;;;4.25;1.55;;;23.90;16.70;;;;;;4965793;28;20226;-90
2023/08/03 07:34:23;;;;;;;5.85;1.60;;;24.30;1.00;;;;;;4975768;28;20200;-91
2023/08/03 07:36:52;;;;;;;4.80;1.30;;;24.50;1.00;;;;;;4981572;28;20716;-91
2023/08/03 07:39:19;;;;;;;6.90;1.40;;;24.80;1.00;;;;;;4970606;28;20204;-92
2023/08/03 07:41:46;;;;;;;3.53;1.35;;;25.10;1.00;;;;;;4986938;28;20195;-91
2023/08/03 07:44:12;;;;;;;4.35;1.20;;;25.30;1.00;;;;;;4986599;28;20666;-91
2023/08/03 07:46:39;;;;;;;2.85;1.00;;;25.50;1.00;;;;;;4982263;28;20195;-91
2023/08/03 07:49:06;;;;;;;4.43;1.02;;;25.60;1.00;;;;;;4976222;28;20195;-90
2023/08/03 07:51:34;;;;;;;10.05;1.40;;;25.60;1.00;;;;;;4959291;28;20314;-90
2023/08/03 07:54:01;;;;;;;6.07;1.55;;;25.50;1.00;;;;;;4983746;28;20368;-91
2023/08/03 07:56:28;;;;;;;3.50;1.20;;;25.50;1.00;;;;;;4987904;28;20199;-91
2023/08/03 07:58:55;;;;;;;3.17;1.40;;;25.50;1.00;;;;;;4983909;28;20648;-91
2023/08/03 08:01:22;;;;;;;3.92;1.40;;;25.40;1.00;;;;;;4974847;28;20188;-90
2023/08/03 08:03:50;;;;;;;4.82;1.40;;;25.20;1.00;;;;;;4973427;28;20218;-91
2023/08/03 08:06:18;;;;;;;4.28;1.02;;;25.00;1.00;;;;;;4969925;28;20206;-91
2023/08/03 08:08:48;;;;;;;2.78;1.30;;;24.80;99.90;;;;;;4968157;28;20202;-91
2023/08/03 08:11:16;;;;;;;9.35;1.92;;;24.60;99.90;;;;;;4976106;28;20250;-91
2023/08/03 08:13:44;;;;;;;11.13;1.90;;;24.40;1.00;;;;;;4973733;28;20227;-90
2023/08/03 08:16:13;;;;;;;3.78;1.13;;;24.40;1.00;;;;;;4969773;28;20196;-92
2023/08/03 08:18:40;;;;;;;3.60;0.90;;;24.30;99.90;;;;;;4970704;28;20211;-91
2023/08/03 08:21:08;;;;;;;6.43;1.30;;;24.10;99.90;;;;;;4982717;28;20661;-91
2023/08/03 08:23:35;;;;;;;8.05;1.10;;;24.00;1.00;;;;;;4973127;28;20294;-91
2023/08/03 08:26:09;;;;;;;3.65;1.17;;;24.10;1.00;;;;;;4976255;28;20652;-90
2023/08/03 08:28:36;;;;;;;4.93;1.00;;;24.20;1.00;;;;;;4975669;28;20203;-91
2023/08/03 08:31:03;;;;;;;11.40;2.40;;;24.30;1.00;;;;;;4976837;28;20223;-91
2023/08/03 08:33:30;;;;;;;2.78;0.95;;;24.40;1.00;;;;;;4976837;28;20203;-92
2023/08/03 08:35:57;;;;;;;9.52;1.30;;;24.50;99.90;;;;;;4986569;28;20227;-91
2023/08/03 08:38:23;;;;;;;5.13;1.13;;;24.40;99.90;;;;;;4977455;28;20203;-91
2023/08/03 08:40:51;;;;;;;3.83;1.02;;;24.30;99.90;;;;;;4965015;28;20188;-91
2023/08/03 08:43:20;;;;;;;4.22;1.05;;;24.30;99.90;;;;;;4967447;28;20211;-91
2023/08/03 08:45:47;;;;;;;2.42;1.05;;;24.30;99.90;;;;;;4972487;28;20266;-91
2023/08/03 08:48:14;;;;;;;2.60;1.00;;;24.40;99.90;;;;;;4981402;28;20211;-91
2023/08/03 08:50:42;;;;;;;4.50;1.15;;;24.50;99.90;;;;;;4983753;28;20219;-91
2023/08/03 08:53:09;;;;;;;5.03;1.30;;;24.70;99.90;;;;;;4978389;28;20206;-91
2023/08/03 08:55:36;;;;;;;7.30;1.40;;;24.90;99.90;;;;;;4980537;28;20195;-92
2023/08/03 08:58:03;;;;;;;5.88;1.35;;;25.10;99.90;;;;;;4982628;28;20583;-91
2023/08/03 09:00:40;;;;;;;4.97;1.05;;;25.10;99.90;;;;;;4975862;28;20708;-90
2023/08/03 09:03:07;;;;;;;3.22;0.90;;;25.00;99.90;;;;;;4986795;28;20214;-91
2023/08/03 09:05:36;;;;;;;5.57;1.30;;;24.80;99.90;;;;;;4976351;28;20215;-90
2023/08/03 09:08:05;;;;;;;5.32;1.20;;;24.70;99.90;;;;;;4983771;28;20201;-91
2023/08/03 09:10:32;;;;;;;4.05;1.10;;;24.80;99.90;;;;;;4967903;28;20250;-90
2023/08/03 09:12:59;;;;;;;7.88;1.70;;;24.70;99.90;;;;;;4971058;28;20224;-90
2023/08/03 09:15:42;;;;;;;6.07;1.15;;;24.50;99.90;;;;;;4967540;28;20207;-91
2023/08/03 09:18:10;;;;;;;3.17;1.20;;;24.40;99.90;;;;;;4975923;28;20656;-92
2023/08/03 09:20:37;;;;;;;3.90;1.20;;;24.40;99.90;;;;;;4967057;28;20202;-91
2023/08/03 09:23:03;;;;;;;2.17;1.00;;;24.50;99.90;;;;;;4975464;28;20634;-92
2023/08/03 09:25:31;;;;;;;3.05;1.23;;;24.70;99.90;;;;;;4967754;28;20195;-91
2023/08/03 09:27:58;;;;;;;3.03;1.10;;;24.90;99.90;;;;;;4971693;28;20204;-91
2023/08/03 09:30:25;;;;;;;1.88;0.90;;;25.20;99.90;;;;;;4981922;28;20206;-91
2023/08/03 09:32:54;;;;;;;3.40;0.82;;;25.50;99.90;;;;;;4986055;28;20206;-92
2023/08/03 09:35:22;;;;;;;2.55;1.00;;;25.70;99.90;;;;;;4985239;28;20199;-90
2023/08/03 09:37:49;;;;;;;4.35;1.00;;;25.70;99.90;;;;;;4972970;28;20205;-91
2023/08/03 09:40:17;;;;;;;3.80;1.02;;;25.60;99.90;;;;;;4980442;28;20222;-92
2023/08/03 09:42:46;;;;;;;2.83;1.08;;;25.40;99.90;;;;;;4980465;28;20846;-91
2023/08/03 09:45:13;;;;;;;2.78;0.80;;;25.20;99.90;;;;;;4985557;28;20222;-91
2023/08/03 09:47:41;;;;;;;5.40;0.90;;;25.40;99.90;;;;;;4984062;28;20195;-91
2023/08/03 09:50:10;;;;;;;4.72;0.90;;;25.70;99.90;;;;;;4969371;28;20199;-91
2023/08/03 09:52:43;;;;;;;2.92;1.10;;;26.00;99.90;;;;;;4975375;28;20247;-92
2023/08/03 09:55:19;;;;;;;4.68;1.05;;;26.00;99.90;;;;;;4975311;28;20571;-93
2023/08/03 09:57:51;;;;;;;1.90;0.80;;;26.10;99.90;;;;;;4975061;28;20648;-91
2023/08/03 10:00:18;;;;;;;4.43;0.85;;;26.20;99.90;;;;;;4980293;28;20661;-90
2023/08/03 10:02:59;;;;;;;3.13;0.90;;;26.20;99.90;;;;;;4966737;28;20697;-92
2023/08/03 10:05:29;;;;;;;3.03;0.70;;;26.10;99.90;;;;;;4976140;28;20209;-91
2023/08/03 10:08:00;;;;;;;1.60;0.80;;;26.00;99.90;;;;;;4968882;28;20199;-91
2023/08/03 10:10:30;;;;;;;3.95;1.02;;;25.80;99.90;;;;;;4976217;28;20316;-92
2023/08/03 10:13:01;;;;;;;4.03;0.75;;;25.70;99.90;;;;;;4975193;28;20687;-91
2023/08/03 10:15:28;;;;;;;1.95;0.70;;;25.60;99.90;;;;;;4967643;28;20290;-91
2023/08/03 10:17:56;;;;;;;2.83;0.80;;;25.50;99.90;;;;;;4979853;28;20674;-91
2023/08/03 10:20:24;;;;;;;4.38;0.80;;;25.70;99.90;;;;;;4965864;28;20672;-91
2023/08/03 10:23:12;;;;;;;3.65;0.80;;;25.90;99.90;;;;;;4974831;28;20211;-92
2023/08/03 10:25:52;;;;;;;4.22;0.80;;;26.20;99.90;;;;;;4961297;28;20203;-92
2023/08/03 10:28:19;;;;;;;4.07;1.40;;;26.70;99.90;;;;;;4961667;28;20208;-91
2023/08/03 10:31:06;;;;;;;2.42;0.90;;;27.10;99.90;;;;;;4970889;28;20203;-92
2023/08/03 10:34:05;;;;;;;3.15;0.63;;;27.20;99.90;;;;;;4965881;28;20200;-92
2023/08/03 10:36:38;;;;;;;5.35;0.90;;;26.90;99.90;;;;;;4976762;28;20671;-91
2023/08/03 10:39:09;;;;;;;2.65;0.90;;;26.60;99.90;;;;;;4980765;28;20234;-91
2023/08/03 10:41:38;;;;;;;4.07;0.73;;;26.50;99.90;;;;;;4985080;28;20190;-91
2023/08/03 10:44:24;;;;;;;3.70;0.85;;;26.50;99.90;;;;;;4974938;28;20640;-92
2023/08/03 10:46:52;;;;;;;5.10;1.20;;;26.50;99.90;;;;;;4967300;28;20726;-91
2023/08/03 10:49:49;;;;;;;1.73;0.80;;;26.40;99.90;;;;;;4980529;28;20682;-92
2023/08/03 10:52:21;;;;;;;2.47;0.80;;;26.40;99.90;;;;;;4977956;28;20220;-92
2023/08/03 10:54:49;;;;;;;1.45;0.73;;;26.30;99.90;;;;;;4970955;28;20211;-92
2023/08/03 10:57:19;;;;;;;3.30;0.98;;;26.20;99.90;;;;;;4968238;28;20201;-91
2023/08/03 10:59:47;;;;;;;2.10;0.93;;;26.20;99.90;;;;;;4971542;28;20200;-91
2023/08/03 11:02:18;;;;;;;3.63;1.10;;;26.30;99.90;;;;;;4974777;28;20200;-92
2023/08/03 11:04:46;;;;;;;3.03;0.93;;;26.40;99.90;;;;;;4961236;28;20207;-92
2023/08/03 11:07:17;;;;;;;3.33;1.00;;;26.40;99.90;;;;;;4966298;28;20204;-92
2023/08/03 11:09:45;;;;;;;6.07;0.90;;;26.30;99.90;;;;;;4966858;28;20690;-92
2023/08/03 11:12:16;;;;;;;3.03;0.90;;;26.40;99.90;;;;;;4974289;28;20778;-92
2023/08/03 11:14:45;;;;;;;2.60;0.80;;;26.50;99.90;;;;;;4985044;28;20230;-91
2023/08/03 11:17:14;;;;;;;5.22;0.85;;;26.70;99.90;;;;;;4972323;28;20223;-91
2023/08/03 11:19:41;;;;;;;2.42;0.80;;;26.90;99.90;;;;;;4973931;28;20195;-92
2023/08/03 11:22:08;;;;;;;6.15;1.30;;;27.10;99.90;;;;;;4973003;28;20211;-92
2023/08/03 11:24:36;;;;;;;3.38;0.65;;;27.30;99.90;;;;;;4973925;28;20200;-92
2023/08/03 11:27:04;;;;;;;3.88;0.80;;;27.40;99.90;;;;;;4975979;28;20270;-92
2023/08/03 11:29:35;;;;;;;5.95;1.30;;;27.30;99.90;;;;;;4977776;28;20219;-93
2023/08/03 11:32:02;;;;;;;1.42;0.80;;;27.20;99.90;;;;;;4974872;28;20227;-93
2023/08/03 11:34:29;;;;;;;3.38;1.13;;;27.10;99.90;;;;;;4965415;28;20224;-92
2023/08/03 11:36:56;;;;;;;1.75;0.88;;;26.90;99.90;;;;;;4966612;28;20204;-92
2023/08/03 11:39:23;;;;;;;3.17;1.17;;;26.70;99.90;;;;;;4976619;28;20212;-92
2023/08/03 11:41:51;;;;;;;1.88;0.80;;;26.50;99.90;;;;;;4977681;28;20195;-91
2023/08/03 11:44:21;;;;;;;1.30;0.70;;;26.30;99.90;;;;;;4978118;28;20199;-91
2023/08/03 11:46:50;;;;;;;2.53;1.10;;;26.20;99.90;;;;;;4978703;28;20214;-91
2023/08/03 11:49:18;;;;;;;4.80;0.90;;;26.30;99.90;;;;;;4980554;28;20203;-92
2023/08/03 11:51:48;;;;;;;2.55;0.90;;;26.40;99.90;;;;;;4973050;28;20589;-92
2023/08/03 11:54:25;;;;;;;4.43;0.90;;;26.30;99.90;;;;;;4977895;28;20634;-92
2023/08/03 11:56:52;;;;;;;4.45;0.80;;;26.30;99.90;;;;;;4974582;28;20219;-92
2023/08/03 11:59:18;;;;;;;5.63;0.70;;;26.60;99.90;;;;;;4976624;28;20206;-92
2023/08/03 12:01:46;;;;;;;3.28;0.60;;;26.70;99.90;;;;;;4997301;28;20662;-93
2023/08/03 12:04:15;;;;;;;6.10;0.98;;;26.80;99.90;;;;;;4981645;28;20196;-92
2023/08/03 12:06:44;;;;;;;2.85;0.60;;;26.80;99.90;;;;;;4974961;28;20215;-92
2023/08/03 12:09:11;;;;;;;2.60;0.90;;;26.90;99.90;;;;;;4971945;28;20231;-92
2023/08/03 12:11:37;;;;;;;2.53;0.70;;;27.20;99.90;;;;;;4980136;28;20473;-93
2023/08/03 12:14:04;;;;;;;3.25;0.73;;;27.40;99.90;;;;;;4977662;28;20299;-92
2023/08/03 12:16:31;;;;;;;2.60;0.80;;;27.40;99.90;;;;;;4973404;28;20203;-91
2023/08/03 12:18:58;;;;;;;2.38;0.80;;;27.30;99.90;;;;;;4965382;28;20294;-92
2023/08/03 12:21:26;;;;;;;2.47;0.73;;;27.40;99.90;;;;;;4975615;28;20203;-92
2023/08/03 12:23:53;;;;;;;2.72;0.50;;;27.70;99.90;;;;;;4988966;28;20210;-92
2023/08/03 12:26:19;;;;;;;8.00;0.65;;;27.80;99.90;;;;;;4977388;28;20235;-92
2023/08/03 12:28:47;;;;;;;4.10;0.57;;;28.00;99.90;;;;;;4980171;28;20195;-92
2023/08/03 12:31:14;;;;;;;4.35;0.57;;;28.20;99.90;;;;;;4976087;28;20203;-93
2023/08/03 12:33:40;;;;;;;6.00;0.90;;;28.30;99.90;;;;;;4974544;28;20705;-93
2023/08/03 12:36:07;;;;;;;3.50;0.50;;;28.20;99.90;;;;;;4982083;28;20286;-91
2023/08/03 12:38:36;;;;;;;8.63;0.68;;;28.00;99.90;;;;;;4976338;28;20200;-92
2023/08/03 12:41:03;;;;;;;2.80;0.50;;;27.80;99.90;;;;;;4964622;28;20191;-92
2023/08/03 12:43:29;;;;;;;3.67;0.70;;;27.70;99.90;;;;;;4979388;28;20206;-92
2023/08/03 12:45:56;;;;;;;3.75;0.70;;;27.50;99.90;;;;;;4984430;28;20292;-92
2023/08/03 12:48:23;;;;;;;2.95;0.60;;;27.30;99.90;;;;;;4973053;28;20218;-92
2023/08/03 12:50:50;;;;;;;4.53;0.82;;;27.20;99.90;;;;;;4987299;28;20286;-92
2023/08/03 12:53:19;;;;;;;2.83;0.60;;;27.10;99.90;;;;;;4985296;28;20218;-92
2023/08/03 12:55:47;;;;;;;2.20;0.57;;;26.70;99.90;;;;;;4982172;28;20209;-92